Time;durP1;ratioP1;P1;durP2;ratioP2;P2;SDS_P1;SDS_P2;PMS_P1;PMS_P2;Temp;Humidity;BMP_temperature;BMP_pressure;BME280_temperature;BME280_humidity;BME280_pressure;Samples;Min_cycle;Max_cycle;Signal;HPM_P1;HPM_P2
2023/06/04 00:02:18;;;;;;;3.90;3.20;;;17.80;99.90;;;18.12;72.41;95119.84;5054734;28;20455;-55
2023/06/04 00:04:45;;;;;;;11.93;3.90;;;17.80;99.90;;;18.12;71.79;95119.84;5054169;28;20546;-69
2023/06/04 00:07:13;;;;;;;5.93;3.60;;;17.80;99.90;;;18.10;71.75;95123.53;5051915;28;20448;-54
2023/06/04 00:09:41;;;;;;;3.07;2.87;;;17.80;99.90;;;18.10;72.33;95122.69;5053229;28;20825;-69
2023/06/04 00:12:09;;;;;;;2.63;2.17;;;17.80;99.90;;;18.10;72.36;95117.38;5049314;28;20448;-69
2023/06/04 00:14:36;;;;;;;2.90;2.70;;;17.80;99.90;;;18.10;71.98;95110.22;5055950;28;20599;-55
2023/06/04 00:17:03;;;;;;;5.27;2.60;;;17.80;99.90;;;18.10;72.00;95114.72;5050905;28;20509;-55
2023/06/04 00:19:30;;;;;;;2.67;2.40;;;17.80;99.90;;;18.08;72.63;95109.56;5054103;28;20556;-54
2023/06/04 00:21:58;;;;;;;2.63;2.43;;;17.80;99.90;;;18.08;72.55;95119.41;5049231;28;20452;-53
2023/06/04 00:24:26;;;;;;;2.73;2.53;;;17.80;99.90;;;18.07;72.12;95115.88;5055091;28;20479;-68
2023/06/04 00:26:53;;;;;;;3.03;2.77;;;17.80;99.90;;;18.05;72.55;95106.44;5049292;28;20456;-68
2023/06/04 00:29:20;;;;;;;4.40;3.03;;;17.70;99.90;;;18.07;72.97;95104.44;5055953;28;20478;-56
2023/06/04 00:31:48;;;;;;;3.00;2.37;;;17.70;99.90;;;18.07;72.70;95109.75;5051245;28;20497;-53
2023/06/04 00:34:15;;;;;;;2.63;2.43;;;17.70;99.90;;;18.05;71.98;95109.94;5056206;28;20915;-70
2023/06/04 00:36:42;;;;;;;2.80;2.20;;;17.70;99.90;;;18.04;71.87;95110.13;5049226;28;20972;-54
2023/06/04 00:39:10;;;;;;;2.50;2.30;;;17.70;99.90;;;18.01;71.61;95107.81;5049865;28;20600;-69
2023/06/04 00:41:38;;;;;;;3.20;3.00;;;17.70;99.90;;;17.99;71.83;95110.66;5052105;28;20455;-69
2023/06/04 00:44:06;;;;;;;2.63;2.50;;;17.70;99.90;;;17.97;71.74;95112.69;5052670;28;20476;-70
2023/06/04 00:46:35;;;;;;;3.27;3.10;;;17.70;99.90;;;17.95;72.28;95109.34;5050598;28;20458;-52
2023/06/04 00:49:03;;;;;;;5.90;3.90;;;17.60;99.90;;;17.93;72.09;95100.72;5053024;28;20467;-69
2023/06/04 00:51:30;;;;;;;3.10;2.90;;;17.60;99.90;;;17.92;72.15;95109.69;5056020;28;20521;-68
2023/06/04 00:53:58;;;;;;;3.43;2.63;;;17.60;99.90;;;17.90;73.01;95093.09;5050603;28;20506;-69
2023/06/04 00:56:25;;;;;;;3.30;3.00;;;17.60;99.90;;;17.91;72.90;95098.25;5049503;28;20498;-69
2023/06/04 00:58:54;;;;;;;3.57;2.50;;;17.60;99.90;;;17.94;72.44;95104.19;5048908;28;20480;-52
2023/06/04 01:01:27;;;;;;;4.47;3.70;;;17.60;99.90;;;17.92;72.64;95099.91;5054302;28;20459;-55
2023/06/04 01:03:55;;;;;;;3.47;3.27;;;17.60;99.90;;;17.92;72.47;95097.25;5051676;28;20989;-56
2023/06/04 01:06:27;;;;;;;3.43;3.20;;;17.60;99.90;;;17.91;73.16;95095.59;5054424;28;20807;-56
2023/06/04 01:08:54;;;;;;;3.70;2.83;;;17.60;99.90;;;17.91;73.14;95103.56;5052785;28;20831;-54
2023/06/04 01:11:34;;;;;;;8.30;3.00;;;17.60;99.90;;;17.89;73.16;95100.25;5051312;28;20553;-54
2023/06/04 01:14:03;;;;;;;7.83;2.90;;;17.60;99.90;;;17.87;72.73;95106.72;5050881;28;20474;-56
2023/06/04 01:16:41;;;;;;;3.07;2.80;;;17.60;99.90;;;17.83;72.25;95103.63;5054536;28;20671;-71
2023/06/04 01:19:29;;;;;;;3.47;3.17;;;17.60;99.90;;;17.81;72.25;95097.63;5054409;28;20487;-54
2023/06/04 01:21:57;;;;;;;3.27;3.07;;;17.50;99.90;;;17.78;73.00;95102.47;5052659;28;20452;-70
2023/06/04 01:24:25;;;;;;;3.93;2.83;;;17.50;99.90;;;17.76;72.89;95105.31;5048397;28;20633;-55
2023/06/04 01:26:55;;;;;;;2.90;2.70;;;17.50;99.90;;;17.73;72.43;95105.69;5050243;28;20456;-55
2023/06/04 01:29:24;;;;;;;2.63;2.43;;;17.40;99.90;;;17.71;72.49;95102.38;5057785;28;20466;-71
2023/06/04 01:31:52;;;;;;;14.73;2.67;;;17.40;99.90;;;17.70;73.29;95103.38;5052984;28;20513;-54
2023/06/04 01:34:19;;;;;;;3.20;2.80;;;17.40;99.90;;;17.70;72.69;95114.00;5057825;28;20482;-53
2023/06/04 01:36:46;;;;;;;2.60;2.23;;;17.40;99.90;;;17.69;72.64;95120.34;5052033;28;20460;-56
2023/06/04 01:39:14;;;;;;;2.67;2.50;;;17.40;99.90;;;17.68;72.72;95116.03;5056477;28;21037;-54
2023/06/04 01:41:41;;;;;;;3.63;1.87;;;17.40;99.90;;;17.66;72.60;95120.69;5051101;28;20459;-52
2023/06/04 01:44:08;;;;;;;2.10;2.00;;;17.40;99.90;;;17.66;73.25;95113.56;5058859;28;20472;-71
2023/06/04 01:46:37;;;;;;;2.37;2.27;;;17.40;99.90;;;17.66;72.72;95116.22;5052726;28;20455;-71
2023/06/04 01:49:06;;;;;;;2.10;2.00;;;17.40;99.90;;;17.65;72.88;95119.06;5059988;28;20479;-70
2023/06/04 01:51:33;;;;;;;2.73;2.53;;;17.30;99.90;;;17.64;72.49;95117.38;5058131;28;20469;-71
2023/06/04 01:54:01;;;;;;;10.63;2.40;;;17.30;99.90;;;17.63;72.84;95123.69;5056780;28;20530;-70
2023/06/04 01:56:28;;;;;;;2.43;2.33;;;17.30;99.90;;;17.63;72.51;95126.34;5054672;28;20487;-52
2023/06/04 01:58:56;;;;;;;2.10;1.93;;;17.30;99.90;;;17.61;73.09;95118.56;5055884;28;20506;-55
2023/06/04 02:01:23;;;;;;;2.03;1.93;;;17.30;99.90;;;17.62;72.53;95130.03;5055111;28;20454;-72
2023/06/04 02:03:52;;;;;;;3.20;2.10;;;17.30;99.90;;;17.62;73.11;95124.72;5061214;28;20906;-55
2023/06/04 02:06:19;;;;;;;2.17;1.97;;;17.30;99.90;;;17.63;72.60;95131.69;5058345;28;20451;-55
2023/06/04 02:08:46;;;;;;;2.60;2.20;;;17.30;99.90;;;17.61;72.88;95129.19;5055541;28;20851;-61
2023/06/04 02:11:14;;;;;;;3.10;2.47;;;17.30;99.90;;;17.59;72.46;95138.38;5051877;28;20535;-74
2023/06/04 02:13:41;;;;;;;1.80;1.70;;;17.30;99.90;;;17.57;72.93;95127.91;5057416;28;20479;-72
2023/06/04 02:16:08;;;;;;;2.73;2.27;;;17.30;99.90;;;17.58;72.88;95142.03;5056221;28;20880;-73
2023/06/04 02:18:35;;;;;;;1.87;1.77;;;17.30;99.90;;;17.57;72.96;95143.88;5053344;28;20475;-53
2023/06/04 02:21:05;;;;;;;2.00;1.90;;;17.30;99.90;;;17.55;72.77;95138.72;5053373;28;20493;-72
2023/06/04 02:23:32;;;;;;;8.00;2.40;;;17.30;99.90;;;17.54;73.09;95145.03;5052599;28;20471;-72
2023/06/04 02:25:59;;;;;;;6.50;2.50;;;17.30;99.90;;;17.54;72.98;95145.03;5057806;28;20558;-71
2023/06/04 02:28:27;;;;;;;2.40;2.30;;;17.30;99.90;;;17.55;73.20;95144.06;5051701;28;20498;-51
2023/06/04 02:30:54;;;;;;;2.57;2.47;;;17.30;99.90;;;17.55;73.41;95160.00;5059254;28;20447;-56
2023/06/04 02:33:21;;;;;;;2.37;2.17;;;17.30;99.90;;;17.54;73.49;95155.69;5051446;28;21072;-54
2023/06/04 02:35:48;;;;;;;3.10;2.37;;;17.30;99.90;;;17.54;73.04;95146.88;5050259;28;20909;-55
2023/06/04 02:38:17;;;;;;;3.40;2.10;;;17.20;99.90;;;17.54;72.93;95158.34;5052873;28;20956;-72
2023/06/04 02:40:44;;;;;;;2.27;2.10;;;17.30;99.90;;;17.54;72.94;95162.84;5053941;28;20492;-75
2023/06/04 02:43:12;;;;;;;2.07;1.97;;;17.20;99.90;;;17.52;73.16;95157.69;5053083;28;20455;-73
2023/06/04 02:45:39;;;;;;;1.83;1.73;;;17.20;99.90;;;17.51;72.72;95161.34;5055487;28;21016;-53
2023/06/04 02:48:06;;;;;;;2.13;2.03;;;17.30;99.90;;;17.51;72.69;95166.66;5053488;28;20460;-54
2023/06/04 02:50:34;;;;;;;2.00;1.90;;;17.30;99.90;;;17.53;73.53;95166.50;5061452;28;20528;-73
2023/06/04 02:53:01;;;;;;;2.53;2.33;;;17.30;99.90;;;17.53;73.52;95163.84;5055572;28;20475;-54
2023/06/04 02:55:29;;;;;;;2.60;1.83;;;17.30;99.90;;;17.54;72.92;95171.63;5052694;28;20533;-54
2023/06/04 02:57:57;;;;;;;1.97;1.87;;;17.30;99.90;;;17.56;73.38;95172.28;5056018;28;20459;-74
2023/06/04 03:00:25;;;;;;;7.80;2.40;;;17.30;99.90;;;17.56;73.52;95171.47;5053378;28;20527;-73
2023/06/04 03:02:52;;;;;;;3.00;2.20;;;17.30;99.90;;;17.57;73.01;95181.09;5061895;28;20622;-54
2023/06/04 03:05:20;;;;;;;3.50;2.07;;;17.30;99.90;;;17.58;72.95;95176.59;5053502;28;20886;-72
2023/06/04 03:07:47;;;;;;;3.33;1.93;;;17.30;99.90;;;17.58;73.36;95177.44;5050137;28;20976;-54
2023/06/04 03:10:15;;;;;;;2.47;1.97;;;17.30;99.90;;;17.59;73.25;95181.75;5055996;28;21068;-53
2023/06/04 03:12:44;;;;;;;3.13;2.93;;;17.30;99.90;;;17.60;73.14;95187.88;5051537;28;20482;-75
2023/06/04 03:15:11;;;;;;;2.27;2.17;;;17.30;99.90;;;17.60;73.24;95175.44;5053304;28;20474;-57
2023/06/04 03:17:39;;;;;;;1.70;1.60;;;17.30;99.90;;;17.62;72.97;95180.59;5054239;28;20451;-53
2023/06/04 03:20:08;;;;;;;7.10;2.20;;;17.30;99.90;;;17.62;73.63;95177.94;5054734;28;20629;-75
2023/06/04 03:22:35;;;;;;;2.67;2.57;;;17.30;99.90;;;17.60;73.25;95171.94;5054586;28;21300;-75
2023/06/04 03:25:03;;;;;;;4.30;2.00;;;17.30;99.90;;;17.64;73.66;95178.56;5049506;28;20482;-74
2023/06/04 03:27:32;;;;;;;2.27;2.03;;;17.30;99.90;;;17.67;73.39;95183.53;5054105;28;20509;-54
2023/06/04 03:30:00;;;;;;;2.10;2.00;;;17.40;99.90;;;17.70;73.71;95183.19;5052173;28;20530;-55
2023/06/04 03:32:27;;;;;;;2.20;2.10;;;17.40;99.90;;;17.72;73.69;95186.47;5055911;28;20459;-53
2023/06/04 03:34:55;;;;;;;2.47;2.27;;;17.40;99.90;;;17.74;73.41;95187.16;5051814;28;20482;-55
2023/06/04 03:37:22;;;;;;;2.53;2.33;;;17.40;99.90;;;17.76;73.44;95189.63;5059278;28;20826;-76
2023/06/04 03:39:49;;;;;;;2.50;2.30;;;17.40;99.90;;;17.78;73.78;95199.09;5050154;28;20549;-55
2023/06/04 03:42:16;;;;;;;2.30;2.10;;;17.50;99.90;;;17.81;73.78;95193.41;5059218;28;20467;-56
2023/06/04 03:44:44;;;;;;;8.53;1.97;;;17.50;99.90;;;17.82;73.47;95192.41;5053888;28;20479;-77
2023/06/04 03:47:12;;;;;;;5.03;2.50;;;17.50;99.90;;;17.84;73.19;95198.38;5052056;28;20477;-75
2023/06/04 03:49:40;;;;;;;2.33;2.20;;;17.50;99.90;;;17.83;73.49;95202.06;5056506;28;20520;-77
2023/06/04 03:52:07;;;;;;;4.30;2.27;;;17.50;99.90;;;17.83;73.43;95199.41;5054871;28;20455;-55
2023/06/04 03:54:35;;;;;;;2.73;2.53;;;17.50;99.90;;;17.86;72.92;95198.19;5051448;28;20490;-75
2023/06/04 03:57:02;;;;;;;2.70;2.50;;;17.60;99.90;;;17.88;73.12;95196.22;5055078;28;20447;-78
2023/06/04 03:59:30;;;;;;;3.43;3.20;;;17.60;99.90;;;17.90;73.17;95202.22;5049940;28;20487;-55
2023/06/04 04:01:57;;;;;;;2.57;2.40;;;17.60;99.90;;;17.92;73.30;95201.03;5050057;28;20993;-76
2023/06/04 04:04:26;;;;;;;8.07;2.87;;;17.60;99.90;;;17.94;73.16;95208.00;5050421;28;20479;-54
2023/06/04 04:06:53;;;;;;;8.13;3.00;;;17.60;99.90;;;17.94;73.98;95208.00;5050601;28;20452;-78
2023/06/04 04:09:21;;;;;;;4.20;3.70;;;17.60;99.90;;;17.95;73.70;95210.47;5046930;28;21057;-55
2023/06/04 04:11:48;;;;;;;6.73;3.43;;;17.60;99.90;;;17.96;73.67;95211.31;5048825;28;20448;-55
2023/06/04 04:14:15;;;;;;;4.40;3.70;;;17.60;99.90;;;17.97;73.48;95212.97;5052781;28;20985;-56
2023/06/04 04:16:42;;;;;;;3.30;3.10;;;17.60;99.90;;;17.98;74.14;95211.97;5056813;28;20514;-54
2023/06/04 04:19:11;;;;;;;6.13;3.40;;;17.60;99.90;;;17.98;74.37;95218.09;5049553;28;20899;-55
2023/06/04 04:21:40;;;;;;;4.53;3.73;;;17.70;99.90;;;18.00;73.62;95218.78;5064839;28;20486;-76
2023/06/04 04:24:07;;;;;;;4.00;3.53;;;17.70;99.90;;;18.01;74.38;95223.06;5060406;28;20591;-77
2023/06/04 04:26:35;;;;;;;5.57;3.30;;;17.70;99.90;;;18.03;74.37;95226.41;5056349;28;20475;-76
2023/06/04 04:29:02;;;;;;;4.20;3.80;;;17.70;99.90;;;18.05;74.05;95215.59;5048517;28;20479;-55
2023/06/04 04:31:30;;;;;;;11.10;3.80;;;17.70;99.90;;;18.05;74.39;95227.06;5047002;28;20513;-52
2023/06/04 04:33:57;;;;;;;4.60;4.20;;;17.70;99.90;;;18.06;74.89;95226.06;5052187;28;20502;-55
2023/06/04 04:36:25;;;;;;;4.37;4.00;;;17.70;99.90;;;18.08;74.69;95226.69;5052813;28;20479;-75
2023/06/04 04:38:55;;;;;;;5.10;4.23;;;17.80;99.90;;;18.11;74.67;95220.19;5055537;28;20478;-55
2023/06/04 04:41:22;;;;;;;9.40;4.90;;;17.80;99.90;;;18.14;74.73;95230.50;5052742;28;20553;-76
2023/06/04 04:43:50;;;;;;;8.83;4.70;;;17.80;99.90;;;18.16;75.10;95222.31;5053369;28;20463;-53
2023/06/04 04:46:17;;;;;;;5.33;4.90;;;17.80;99.90;;;18.18;75.02;95223.78;5050393;28;20680;-55
2023/06/04 04:48:45;;;;;;;13.97;5.10;;;17.90;99.90;;;18.20;75.14;95227.13;5059736;28;20472;-55
2023/06/04 04:51:12;;;;;;;5.03;4.57;;;17.90;99.90;;;18.24;75.17;95227.59;5053969;28;20560;-54
2023/06/04 04:53:39;;;;;;;6.80;4.37;;;17.90;99.90;;;18.27;74.73;95233.38;5054686;28;20474;-75
2023/06/04 04:56:08;;;;;;;4.20;3.63;;;17.90;99.90;;;18.28;74.65;95235.03;5049244;28;20448;-55
2023/06/04 04:58:35;;;;;;;8.20;4.27;;;18.00;99.90;;;18.30;74.98;95228.72;5054493;28;20474;-53
2023/06/04 05:01:02;;;;;;;10.43;4.70;;;18.00;99.90;;;18.32;75.17;95232.00;5049338;28;20487;-78
2023/06/04 05:03:29;;;;;;;5.30;4.67;;;18.00;99.90;;;18.33;75.20;95226.50;5048703;28;20477;-54
2023/06/04 05:05:57;;;;;;;5.00;4.13;;;18.00;99.90;;;18.36;74.59;95231.47;5051638;28;21053;-77
2023/06/04 05:08:24;;;;;;;5.17;4.67;;;18.10;99.90;;;18.41;75.26;95230.94;5055839;28;20588;-53
2023/06/04 05:10:52;;;;;;;5.53;4.53;;;18.10;99.90;;;18.45;74.40;95237.53;5052526;28;20506;-77
2023/06/04 05:13:20;;;;;;;12.90;6.10;;;18.10;99.90;;;18.48;74.63;95237.19;5048950;28;20469;-55
2023/06/04 05:15:48;;;;;;;8.67;6.00;;;18.20;99.90;;;18.50;74.67;95235.19;5051150;28;20558;-77
2023/06/04 05:18:16;;;;;;;9.57;7.27;;;18.20;99.90;;;18.54;74.76;95241.78;5056015;28;20520;-55
2023/06/04 05:20:44;;;;;;;14.70;9.00;;;18.20;99.90;;;18.57;74.23;95240.63;5053001;28;20594;-78
2023/06/04 05:23:12;;;;;;;9.63;5.90;;;18.20;99.90;;;18.60;74.17;95238.41;5063738;28;20497;-77
2023/06/04 05:25:40;;;;;;;7.10;5.20;;;18.20;99.90;;;18.65;74.66;95245.88;5060763;28;20467;-55
2023/06/04 05:28:07;;;;;;;5.30;4.33;;;18.30;99.90;;;18.70;73.67;95246.16;5049349;28;20443;-67
2023/06/04 05:30:41;;;;;;;8.80;5.00;;;18.40;99.90;;;18.74;72.87;95243.97;5053824;28;21410;-71
2023/06/04 05:33:11;;;;;;;20.47;5.10;;;18.40;99.90;;;18.75;73.16;95242.97;5053485;28;20443;-71
2023/06/04 05:35:41;;;;;;;7.40;4.40;;;18.40;99.90;;;18.76;72.04;95236.59;5054744;28;20444;-57
2023/06/04 05:38:08;;;;;;;6.00;4.50;;;18.40;99.90;;;18.77;71.61;95255.06;5056347;28;20448;-71
2023/06/04 05:40:35;;;;;;;9.37;4.20;;;18.40;99.90;;;18.76;71.74;95253.44;5056015;28;20495;-69
2023/06/04 05:43:03;;;;;;;6.20;4.40;;;18.40;99.90;;;18.76;71.58;95249.94;5050521;28;20526;-55
2023/06/04 05:45:30;;;;;;;4.77;4.10;;;18.40;99.90;;;18.76;70.72;95255.25;5055351;28;20467;-55
2023/06/04 05:47:58;;;;;;;3.77;3.50;;;18.40;99.90;;;18.76;70.62;95264.09;5057836;28;20843;-56
2023/06/04 05:50:26;;;;;;;6.70;4.37;;;18.50;99.90;;;18.78;70.40;95269.25;5053916;28;20458;-70
2023/06/04 05:52:53;;;;;;;5.83;3.70;;;18.50;99.90;;;18.79;70.30;95260.22;5054684;28;20505;-70
2023/06/04 05:55:21;;;;;;;5.20;4.07;;;18.50;99.90;;;18.81;70.57;95266.22;5056751;28;20984;-70
2023/06/04 05:57:48;;;;;;;4.57;4.17;;;18.50;99.90;;;18.82;69.77;95259.88;5053894;28;20533;-69
2023/06/04 06:00:17;;;;;;;5.93;3.57;;;18.50;99.90;;;18.84;69.42;95267.69;5054960;28;20468;-56
2023/06/04 06:02:45;;;;;;;5.07;4.57;;;18.50;99.90;;;18.87;69.98;95265.53;5053526;28;20451;-53
2023/06/04 06:05:13;;;;;;;10.43;5.00;;;18.60;99.90;;;18.88;69.47;95267.16;5056616;28;20570;-67
2023/06/04 06:07:41;;;;;;;11.10;4.20;;;18.60;99.90;;;18.91;69.84;95271.31;5053781;28;20451;-55
2023/06/04 06:10:09;;;;;;;12.17;5.07;;;18.60;99.90;;;18.94;69.20;95262.97;5058675;28;20886;-69
2023/06/04 06:12:36;;;;;;;6.00;4.00;;;18.60;99.90;;;18.95;68.70;95276.09;5057402;28;20452;-71
2023/06/04 06:15:04;;;;;;;4.33;3.77;;;18.60;99.90;;;18.95;68.96;95281.44;5057818;28;20623;-56
2023/06/04 06:17:32;;;;;;;13.60;4.40;;;18.60;99.90;;;18.95;68.59;95280.63;5055832;28;20457;-76
2023/06/04 06:19:59;;;;;;;4.70;4.37;;;18.60;99.90;;;18.95;68.82;95284.09;5059622;28;21335;-74
2023/06/04 06:22:28;;;;;;;9.53;4.33;;;18.60;99.90;;;18.95;69.13;95277.94;5058377;28;20491;-55
2023/06/04 06:24:55;;;;;;;5.60;4.80;;;18.60;99.90;;;18.96;68.92;95280.44;5061374;28;20456;-55
2023/06/04 06:27:22;;;;;;;4.80;4.33;;;18.70;99.90;;;18.97;68.66;95279.41;5057437;28;20443;-56
2023/06/04 06:29:49;;;;;;;7.53;4.33;;;18.70;99.90;;;18.98;68.66;95275.75;5050730;28;21012;-56
2023/06/04 06:32:17;;;;;;;5.80;4.30;;;18.70;99.90;;;19.00;68.41;95275.56;5055243;28;20454;-59
2023/06/04 06:34:44;;;;;;;9.93;5.63;;;18.70;99.90;;;19.04;68.06;95284.00;5055039;28;20471;-74
2023/06/04 06:37:11;;;;;;;7.13;4.43;;;18.70;99.90;;;19.06;68.34;95285.50;5056313;28;21065;-55
2023/06/04 06:39:40;;;;;;;5.30;4.80;;;18.70;99.90;;;19.08;68.21;95285.31;5052755;28;21004;-55
2023/06/04 06:42:07;;;;;;;11.00;4.50;;;18.80;99.90;;;19.12;67.91;95281.28;5055309;28;20479;-54
2023/06/04 06:44:35;;;;;;;6.47;4.20;;;18.80;99.90;;;19.17;67.73;95281.56;5057932;28;20470;-75
2023/06/04 06:47:02;;;;;;;7.10;5.60;;;18.80;99.90;;;19.26;67.62;95279.63;5051275;28;20458;-55
2023/06/04 06:49:29;;;;;;;8.60;4.53;;;18.90;99.90;;;19.35;67.94;95284.69;5058909;28;20467;-78
2023/06/04 06:51:56;;;;;;;5.10;4.30;;;19.00;99.90;;;19.45;67.71;95286.25;5051486;28;21314;-55
2023/06/04 06:54:23;;;;;;;15.63;5.17;;;19.10;99.90;;;19.52;67.35;95287.19;5051849;28;20556;-57
2023/06/04 06:56:52;;;;;;;7.00;4.67;;;19.10;99.90;;;19.58;67.15;95296.25;5056775;28;20476;-54
2023/06/04 06:59:19;;;;;;;7.47;4.73;;;19.20;99.90;;;19.65;66.75;95286.50;5055580;28;20463;-75
2023/06/04 07:01:47;;;;;;;11.63;4.60;;;19.30;99.90;;;19.71;66.39;95286.59;5054666;28;21340;-73
2023/06/04 07:04:14;;;;;;;5.93;4.17;;;19.40;99.90;;;19.81;66.35;95278.31;5054154;28;20475;-70
2023/06/04 07:06:41;;;;;;;4.37;4.00;;;19.40;99.90;;;19.91;66.20;95291.38;5062270;28;20451;-56
2023/06/04 07:09:09;;;;;;;6.03;5.53;;;19.60;99.90;;;19.98;65.96;95292.25;5056305;28;20982;-73
2023/06/04 07:11:36;;;;;;;4.03;3.73;;;19.60;99.90;;;20.04;66.11;95299.53;5051517;28;20469;-72
2023/06/04 07:14:05;;;;;;;6.93;4.90;;;19.70;99.90;;;20.08;65.47;95296.47;5052787;28;20537;-72
2023/06/04 07:16:32;;;;;;;5.27;3.53;;;19.70;99.90;;;20.13;65.58;95294.09;5057613;28;20806;-54
2023/06/04 07:19:01;;;;;;;4.90;4.40;;;19.80;99.90;;;20.19;65.61;95307.50;5052019;28;20553;-72
2023/06/04 07:21:28;;;;;;;6.83;4.70;;;19.80;99.90;;;20.28;65.42;95300.22;5052820;28;20495;-74
2023/06/04 07:23:56;;;;;;;7.53;5.20;;;19.90;99.90;;;20.35;65.25;95298.41;5049323;28;20463;-55
2023/06/04 07:26:25;;;;;;;6.40;4.20;;;20.00;99.90;;;20.41;64.96;95307.53;5054915;28;20456;-57
2023/06/04 07:28:52;;;;;;;7.03;4.97;;;20.00;99.90;;;20.48;64.75;95310.25;5049979;28;20472;-70
2023/06/04 07:31:20;;;;;;;5.63;4.50;;;20.10;99.90;;;20.53;64.42;95308.69;5054399;28;20500;-56
2023/06/04 07:33:48;;;;;;;8.20;4.93;;;20.20;99.90;;;20.58;64.54;95310.78;5054255;28;20479;-72
2023/06/04 07:36:15;;;;;;;15.43;6.37;;;20.20;99.90;;;20.68;64.43;95313.16;5054966;28;20447;-55
2023/06/04 07:38:42;;;;;;;8.60;4.90;;;20.30;99.90;;;20.76;64.16;95307.69;5051176;28;20479;-73
2023/06/04 07:41:10;;;;;;;11.73;5.70;;;20.40;99.90;;;20.85;64.10;95314.56;5051040;28;20544;-56
2023/06/04 07:43:37;;;;;;;8.40;5.93;;;20.50;99.90;;;20.94;63.90;95317.91;5053186;28;21015;-54
2023/06/04 07:46:04;;;;;;;6.17;5.20;;;20.50;99.90;;;20.99;63.55;95320.84;5051036;28;20802;-73
2023/06/04 07:48:33;;;;;;;6.47;5.40;;;20.60;99.90;;;21.08;63.50;95327.66;5054113;28;20482;-70
2023/06/04 07:51:01;;;;;;;11.90;4.90;;;20.70;99.90;;;21.14;63.16;95324.22;5058939;28;20447;-57
2023/06/04 07:53:28;;;;;;;7.83;5.53;;;20.80;99.90;;;21.17;63.04;95332.91;5054246;28;20539;-71
2023/06/04 07:55:57;;;;;;;6.93;6.07;;;20.80;99.90;;;21.24;62.86;95326.56;5052330;28;20459;-55
2023/06/04 07:58:25;;;;;;;16.10;6.37;;;20.90;99.90;;;21.34;62.65;95328.91;5057598;28;20483;-54
2023/06/04 08:00:53;;;;;;;12.10;5.83;;;21.00;99.90;;;21.43;62.80;95338.44;5049012;28;20460;-55
2023/06/04 08:03:20;;;;;;;8.37;6.80;;;21.00;99.90;;;21.53;61.93;95337.28;5055805;28;20466;-55
2023/06/04 08:05:49;;;;;;;11.80;5.80;;;21.20;99.90;;;21.59;62.00;95334.63;5052146;28;20452;-56
2023/06/04 08:08:16;;;;;;;6.87;6.17;;;21.30;99.90;;;21.70;62.33;95325.22;5046073;28;20502;-67
2023/06/04 08:10:43;;;;;;;5.63;5.10;;;21.30;99.90;;;21.85;61.13;95331.28;5045498;28;20444;-67
2023/06/04 08:13:10;;;;;;;7.90;6.23;;;21.40;99.90;;;21.96;61.76;95332.56;5048631;28;20448;-67
2023/06/04 08:15:38;;;;;;;8.77;5.20;;;21.60;99.90;;;22.08;61.57;95330.16;5053619;28;20521;-55
2023/06/04 08:18:05;;;;;;;7.23;6.23;;;21.70;99.90;;;22.23;61.20;95331.84;5049957;28;21076;-54
2023/06/04 08:20:32;;;;;;;6.83;6.13;;;21.80;99.90;;;22.33;60.74;95333.16;5053250;28;20537;-54
2023/06/04 08:23:01;;;;;;;20.70;7.50;;;21.90;99.90;;;22.44;60.31;95337.09;5050225;28;21118;-56
2023/06/04 08:25:29;;;;;;;9.53;6.87;;;22.00;99.90;;;22.50;59.71;95338.97;5053375;28;20478;-56
2023/06/04 08:27:57;;;;;;;9.77;6.90;;;22.10;99.90;;;22.58;59.84;95340.63;5051627;28;20484;-54
2023/06/04 08:30:25;;;;;;;12.30;7.30;;;22.20;99.90;;;22.62;59.07;95347.25;5053041;28;20476;-56
2023/06/04 08:32:52;;;;;;;8.27;6.47;;;22.30;99.90;;;22.62;59.37;95338.34;5052799;28;20451;-55
2023/06/04 08:35:19;;;;;;;12.10;8.67;;;22.30;99.90;;;22.59;59.27;95339.63;5047456;28;20486;-66
2023/06/04 08:37:47;;;;;;;13.70;8.90;;;22.30;99.90;;;22.55;58.65;95335.69;5055052;28;20509;-53
2023/06/04 08:40:15;;;;;;;12.63;8.83;;;22.20;99.90;;;22.53;59.07;95341.25;5050674;28;21057;-67
2023/06/04 08:42:44;;;;;;;21.00;8.60;;;22.20;99.90;;;22.55;59.21;95349.06;5052787;28;20593;-54
2023/06/04 08:45:13;;;;;;;11.73;9.30;;;22.20;99.90;;;22.55;58.51;95341.84;5049692;28;20478;-66
2023/06/04 08:47:42;;;;;;;13.73;8.30;;;22.20;99.90;;;22.61;59.08;95344.78;5053158;28;20982;-54
2023/06/04 08:50:10;;;;;;;10.20;7.90;;;22.20;99.90;;;22.67;58.38;95354.69;5053353;28;20471;-54
2023/06/04 08:52:38;;;;;;;11.50;8.67;;;22.30;99.90;;;22.72;58.81;95357.56;5047247;28;20462;-66
2023/06/04 08:55:07;;;;;;;15.20;9.23;;;22.30;99.90;;;22.76;59.04;95352.63;5052618;28;20842;-54
2023/06/04 08:57:36;;;;;;;10.77;7.93;;;22.40;99.90;;;22.80;58.56;95349.31;5050971;28;20462;-55
2023/06/04 09:00:07;;;;;;;11.13;8.20;;;22.40;99.90;;;22.81;58.40;95355.53;5052448;28;20556;-56
2023/06/04 09:02:34;;;;;;;13.23;8.33;;;22.40;99.90;;;22.84;58.58;95365.84;5055059;28;21006;-59
2023/06/04 09:05:02;;;;;;;11.17;8.30;;;22.50;99.90;;;22.85;58.09;95352.25;5050916;28;20472;-55
2023/06/04 09:07:30;;;;;;;10.70;7.80;;;22.50;99.70;;;22.83;58.12;95365.00;5047059;28;20468;-56
2023/06/04 09:09:57;;;;;;;11.33;8.40;;;22.40;99.60;;;22.75;58.26;95359.84;5056148;28;20479;-73
2023/06/04 09:12:25;;;;;;;14.97;9.87;;;22.40;99.50;;;22.66;57.83;95369.13;5049077;28;20504;-54
2023/06/04 09:14:54;;;;;;;14.10;8.10;;;22.30;99.20;;;22.51;58.45;95361.22;5051302;28;20532;-71
2023/06/04 09:17:25;;;;;;;16.90;7.83;;;22.20;99.20;;;22.42;57.89;95360.59;5049349;28;20455;-56
2023/06/04 09:19:52;;;;;;;8.47;7.17;;;22.10;99.30;;;22.40;58.11;95357.28;5053114;28;20509;-65
2023/06/04 09:22:19;;;;;;;8.87;7.83;;;22.10;99.50;;;22.39;58.30;95374.41;5049886;28;20878;-56
2023/06/04 09:24:49;;;;;;;11.50;7.60;;;22.00;99.50;;;22.35;58.34;95354.38;5052435;28;21361;-56
2023/06/04 09:27:18;;;;;;;12.60;7.67;;;22.00;99.50;;;22.31;58.74;95363.88;5051846;28;20573;-57
2023/06/04 09:29:52;;;;;;;14.20;8.60;;;21.90;99.30;;;22.27;57.64;95358.03;5050386;28;20846;-68
2023/06/04 09:32:23;;;;;;;12.50;8.40;;;22.00;99.20;;;22.22;57.64;95351.66;5052341;28;20608;-72
2023/06/04 09:34:52;;;;;;;17.47;8.30;;;21.90;98.90;;;22.20;57.96;95355.34;5053806;28;20475;-72
2023/06/04 09:37:21;;;;;;;11.50;8.20;;;21.90;99.20;;;22.26;58.18;95340.31;5054912;28;20467;-70
2023/06/04 09:39:54;;;;;;;10.90;6.97;;;21.90;99.40;;;22.39;58.45;95352.97;5050874;28;20501;-56
2023/06/04 09:42:22;;;;;;;11.60;7.10;;;22.00;99.40;;;22.48;57.68;95351.75;5051818;28;20556;-71
2023/06/04 09:44:49;;;;;;;13.90;7.33;;;22.10;99.20;;;22.58;58.01;95355.91;5052504;28;20471;-57
2023/06/04 09:47:17;;;;;;;15.63;8.73;;;22.20;99.00;;;22.64;57.05;95355.09;5058356;28;20487;-59
2023/06/04 09:49:46;;;;;;;10.53;8.70;;;22.30;98.70;;;22.70;56.65;95348.91;5057586;28;20463;-58
2023/06/04 09:52:14;;;;;;;17.43;9.00;;;22.30;98.50;;;22.78;56.45;95354.06;5055020;28;20936;-70
2023/06/04 09:54:42;;;;;;;9.20;8.03;;;22.40;97.80;;;22.84;56.27;95368.53;5056091;28;20582;-71
2023/06/04 09:57:16;;;;;;;11.67;9.60;;;22.50;98.20;;;22.89;56.47;95353.47;5057002;28;20891;-69
2023/06/04 09:59:45;;;;;;;15.90;9.40;;;22.50;97.80;;;22.99;56.40;95353.06;5059541;28;20889;-69
2023/06/04 10:02:13;;;;;;;13.63;8.43;;;22.60;97.90;;;23.11;56.32;95358.66;5058954;28;20487;-58
2023/06/04 10:04:41;;;;;;;10.53;7.33;;;22.70;97.70;;;23.18;55.24;95362.19;5062858;28;20889;-70
2023/06/04 10:07:12;;;;;;;14.13;8.27;;;22.80;97.40;;;23.24;54.90;95364.03;5054158;28;21081;-58
2023/06/04 10:09:45;;;;;;;10.37;7.07;;;22.90;97.10;;;23.31;55.53;95355.16;5059025;28;20492;-67
2023/06/04 10:12:14;;;;;;;13.67;8.10;;;22.90;97.00;;;23.39;55.15;95360.31;5055347;28;20447;-56
2023/06/04 10:14:46;;;;;;;10.87;8.63;;;23.00;96.90;;;23.41;54.65;95355.59;5053368;28;20479;-70
2023/06/04 10:17:13;;;;;;;12.60;7.90;;;23.00;96.70;;;23.38;55.32;95348.75;5057467;28;20451;-58
2023/06/04 10:19:40;;;;;;;16.37;8.30;;;23.00;96.60;;;23.37;54.88;95349.78;5053595;28;20549;-69
2023/06/04 10:22:11;;;;;;;10.70;9.60;;;23.00;96.70;;;23.37;55.36;95347.09;5056146;28;20486;-69